createdAt,value
2022-10-25T00:01:45.296Z,15.01
2022-10-25T00:04:18.926Z,15.03
2022-10-25T00:06:53.213Z,15.05
2022-10-25T00:09:26.201Z,15.05
2022-10-25T00:11:59.406Z,15.10
2022-10-25T00:14:32.789Z,15.10
2022-10-25T00:17:05.686Z,15.11
2022-10-25T00:19:38.802Z,15.14
2022-10-25T00:22:13.245Z,15.17
2022-10-25T00:24:46.894Z,15.16
2022-10-25T00:27:19.775Z,15.18
2022-10-25T00:29:53.759Z,15.20
2022-10-25T00:32:26.935Z,15.22
2022-10-25T00:34:59.826Z,15.23
2022-10-25T00:37:34.545Z,15.26
2022-10-25T00:40:09.557Z,15.27
2022-10-25T00:42:42.703Z,15.29
2022-10-25T00:45:23.409Z,15.35
2022-10-25T00:48:02.193Z,15.35
2022-10-25T00:50:46.521Z,15.37
2022-10-25T00:53:25.004Z,15.38
2022-10-25T00:56:03.372Z,15.40
2022-10-25T00:58:40.060Z,15.39
2022-10-25T01:01:14.687Z,15.40
2022-10-25T01:03:52.535Z,15.45
2022-10-25T01:06:32.720Z,15.44
2022-10-25T01:09:10.181Z,15.43
2022-10-25T01:11:43.069Z,15.41
2022-10-25T01:14:17.517Z,15.41
2022-10-25T01:17:06.266Z,15.40
2022-10-25T01:19:58.301Z,15.40
2022-10-25T01:22:38.847Z,15.38
2022-10-25T01:25:34.536Z,15.38
2022-10-25T01:28:13.874Z,15.39
2022-10-25T01:31:07.871Z,15.42
2022-10-25T01:33:48.482Z,15.42
2022-10-25T01:36:30.512Z,15.43
2022-10-25T01:39:10.055Z,15.42
2022-10-25T01:41:52.076Z,15.44
2022-10-25T01:44:40.307Z,15.46
2022-10-25T01:47:19.330Z,15.46
2022-10-25T01:49:57.764Z,15.45
2022-10-25T01:52:31.378Z,15.45
2022-10-25T01:55:10.445Z,15.45
2022-10-25T01:58:02.610Z,15.46
2022-10-25T02:00:44.551Z,15.46
2022-10-25T02:03:29.700Z,15.47
2022-10-25T02:06:16.054Z,15.47
2022-10-25T02:08:53.286Z,15.45
2022-10-25T02:11:29.461Z,15.44
2022-10-25T02:14:12.223Z,15.45
2022-10-25T02:16:50.799Z,15.41
2022-10-25T02:19:31.028Z,15.41
2022-10-25T02:22:06.908Z,15.34
2022-10-25T02:24:41.558Z,15.29
2022-10-25T02:27:15.927Z,15.23
2022-10-25T02:29:49.964Z,15.15
2022-10-25T02:32:23.833Z,15.10
2022-10-25T02:34:58.794Z,15.01
2022-10-25T02:37:32.850Z,14.92
2022-10-25T02:40:08.535Z,14.84
2022-10-25T02:42:41.900Z,14.76
2022-10-25T02:45:15.520Z,14.67
2022-10-25T02:47:49.172Z,14.61
2022-10-25T02:50:24.165Z,14.53
2022-10-25T02:52:57.253Z,14.46
2022-10-25T02:55:30.972Z,14.37
2022-10-25T02:58:04.256Z,14.30
2022-10-25T03:00:38.406Z,14.25
2022-10-25T03:03:11.905Z,14.21
2022-10-25T03:05:47.417Z,14.17
2022-10-25T03:08:21.175Z,14.11
2022-10-25T03:10:54.804Z,14.07
2022-10-25T03:13:28.064Z,14.06
2022-10-25T03:16:01.347Z,14.05
2022-10-25T03:18:34.473Z,14.06
2022-10-25T03:21:09.799Z,14.06
2022-10-25T03:23:42.790Z,14.05
2022-10-25T03:26:17.283Z,14.05
2022-10-25T03:28:50.344Z,14.04
2022-10-25T03:31:23.869Z,14.03
2022-10-25T03:33:57.367Z,14.00
2022-10-25T03:36:32.278Z,13.98
2022-10-25T03:39:05.262Z,13.94
2022-10-25T03:41:39.914Z,13.92
2022-10-25T03:44:13.534Z,13.88
2022-10-25T03:46:46.585Z,13.87
2022-10-25T03:49:19.498Z,13.86
2022-10-25T03:51:57.129Z,13.86
2022-10-25T03:54:33.348Z,13.83
2022-10-25T03:57:06.844Z,13.79
2022-10-25T03:59:40.396Z,13.78
2022-10-25T04:02:13.801Z,13.72
2022-10-25T04:04:47.193Z,13.70
2022-10-25T04:07:21.872Z,13.66
2022-10-25T04:09:54.868Z,13.60
2022-10-25T04:12:28.078Z,13.59
2022-10-25T04:15:01.362Z,13.54
2022-10-25T04:17:34.705Z,13.51
2022-10-25T04:20:09.562Z,13.44
2022-10-25T04:22:44.310Z,13.42
2022-10-25T04:25:18.351Z,13.37
2022-10-25T04:27:51.395Z,13.34
2022-10-25T04:30:24.288Z,13.31
2022-10-25T04:32:58.214Z,13.29
2022-10-25T04:35:31.229Z,13.25
2022-10-25T04:38:06.178Z,13.25
2022-10-25T04:40:39.652Z,13.20
2022-10-25T04:43:13.205Z,13.18
2022-10-25T04:45:46.530Z,13.16
2022-10-25T04:48:20.429Z,13.15
2022-10-25T04:50:53.397Z,13.13
2022-10-25T04:53:28.728Z,13.13
2022-10-25T04:56:04.683Z,13.10
2022-10-25T04:58:38.472Z,13.08
2022-10-25T05:01:13.323Z,13.11
2022-10-25T05:03:46.843Z,13.13
2022-10-25T05:06:22.757Z,13.17
2022-10-25T05:08:57.107Z,13.25
2022-10-25T05:11:30.234Z,13.28
2022-10-25T05:14:03.554Z,13.34
2022-10-25T05:16:36.670Z,13.39
2022-10-25T05:19:10.261Z,13.42
2022-10-25T05:21:43.251Z,13.43
2022-10-25T05:24:17.793Z,13.46
2022-10-25T05:26:50.901Z,13.45
2022-10-25T05:29:23.797Z,13.43
2022-10-25T05:31:56.921Z,13.39
2022-10-25T05:34:29.909Z,13.36
2022-10-25T05:37:02.841Z,13.32
2022-10-25T05:39:36.969Z,13.30
2022-10-25T05:42:09.865Z,13.23
2022-10-25T05:44:42.734Z,13.17
2022-10-25T05:47:15.851Z,13.15
2022-10-25T05:49:49.052Z,13.13
2022-10-25T05:52:24.445Z,13.11
2022-10-25T05:54:59.286Z,13.10
2022-10-25T05:57:32.600Z,13.09
2022-10-25T06:00:07.215Z,13.07
2022-10-25T06:02:40.443Z,13.06
2022-10-25T06:05:13.394Z,13.05
2022-10-25T06:07:46.381Z,13.01
2022-10-25T06:10:21.050Z,13.00
2022-10-25T06:12:55.435Z,12.97
2022-10-25T06:15:28.578Z,12.93
2022-10-25T06:18:01.467Z,12.92
2022-10-25T06:20:34.452Z,12.88
2022-10-25T06:23:09.224Z,12.87
2022-10-25T06:25:46.052Z,12.88
2022-10-25T06:28:19.366Z,12.89
2022-10-25T06:30:52.441Z,12.92
2022-10-25T06:33:27.904Z,12.96
2022-10-25T06:36:02.518Z,13.01
2022-10-25T06:38:35.876Z,13.06
2022-10-25T06:41:13.753Z,13.15
2022-10-25T06:43:46.952Z,13.19
2022-10-25T06:46:23.692Z,13.27
2022-10-25T06:48:58.473Z,13.33
2022-10-25T06:51:33.441Z,13.39
2022-10-25T06:54:09.874Z,13.44
2022-10-25T06:56:44.530Z,13.52
2022-10-25T06:59:18.144Z,13.56
2022-10-25T07:01:51.279Z,13.62
2022-10-25T07:04:24.295Z,13.67
2022-10-25T07:06:57.311Z,13.72
2022-10-25T07:09:30.639Z,13.74
2022-10-25T07:12:08.794Z,13.81
2022-10-25T07:14:45.942Z,13.84
2022-10-25T07:17:18.740Z,13.86
2022-10-25T07:19:52.285Z,13.92
2022-10-25T07:22:25.810Z,13.96
2022-10-25T07:24:59.014Z,14.02
2022-10-25T07:27:34.500Z,14.10
2022-10-25T07:30:08.686Z,14.12
2022-10-25T07:32:42.620Z,14.22
2022-10-25T07:35:15.628Z,14.28
2022-10-25T07:37:49.150Z,14.33
2022-10-25T07:40:22.220Z,14.40
2022-10-25T07:42:57.044Z,14.44
2022-10-25T07:45:31.271Z,14.50
2022-10-25T07:48:04.783Z,14.56
2022-10-25T07:50:38.398Z,14.60
2022-10-25T07:53:11.734Z,14.66
2022-10-25T07:55:44.621Z,14.74
2022-10-25T07:58:21.123Z,14.86
2022-10-25T08:00:54.163Z,14.91
2022-10-25T08:03:27.082Z,14.99
2022-10-25T08:06:00.965Z,15.05
2022-10-25T08:08:34.087Z,15.14
2022-10-25T08:11:08.278Z,15.23
2022-10-25T08:13:42.965Z,15.31
2022-10-25T08:16:15.972Z,15.40
2022-10-25T08:18:48.865Z,15.48
2022-10-25T08:21:21.882Z,15.55
2022-10-25T08:23:55.104Z,15.63
2022-10-25T08:26:30.151Z,15.72
2022-10-25T08:29:06.175Z,15.82
2022-10-25T08:31:39.153Z,15.91
2022-10-25T08:34:12.228Z,16.00
2022-10-25T08:36:45.302Z,16.08
2022-10-25T08:39:18.414Z,16.16
2022-10-25T08:41:55.126Z,16.25
2022-10-25T08:44:40.700Z,16.34
2022-10-25T08:47:19.522Z,16.42
2022-10-25T08:49:57.090Z,16.50
2022-10-25T08:52:35.238Z,16.57
2022-10-25T08:55:18.797Z,16.65
2022-10-25T08:57:53.948Z,16.71
2022-10-25T09:00:36.464Z,16.80
2022-10-25T09:03:15.880Z,16.85
2022-10-25T09:06:00.345Z,16.90
2022-10-25T09:08:47.969Z,16.94
2022-10-25T09:11:38.783Z,16.98
2022-10-25T09:14:19.423Z,17.00
2022-10-25T09:16:54.995Z,17.04
2022-10-25T09:19:50.215Z,17.09
2022-10-25T09:22:29.906Z,17.12
2022-10-25T09:25:05.218Z,17.14
2022-10-25T09:27:40.519Z,17.15
2022-10-25T09:30:15.084Z,17.19
2022-10-25T09:32:55.353Z,17.22
2022-10-25T09:35:33.013Z,17.25
2022-10-25T09:38:13.224Z,17.30
2022-10-25T09:40:49.213Z,17.31
2022-10-25T09:43:28.279Z,17.36
2022-10-25T09:46:04.660Z,17.37
2022-10-25T09:48:46.586Z,17.41
2022-10-25T09:51:25.429Z,17.41
2022-10-25T09:53:59.979Z,17.43
2022-10-25T09:56:32.864Z,17.43
2022-10-25T09:59:05.742Z,17.45
2022-10-25T10:01:41.153Z,17.47
2022-10-25T10:04:27.130Z,17.51
2022-10-25T10:07:07.881Z,17.51
2022-10-25T10:09:45.933Z,17.49
2022-10-25T10:12:24.449Z,17.51
2022-10-25T10:15:02.586Z,17.51
2022-10-25T10:17:35.913Z,17.51
2022-10-25T10:20:13.949Z,17.51
2022-10-25T10:22:53.156Z,17.51
2022-10-25T10:25:28.827Z,17.51
2022-10-25T10:28:01.781Z,17.53
2022-10-25T10:30:38.941Z,17.53
2022-10-25T10:33:18.575Z,17.55
2022-10-25T10:35:54.853Z,17.56
2022-10-25T10:38:29.189Z,17.58
2022-10-25T10:41:15.762Z,17.62
2022-10-25T10:43:48.563Z,17.62
2022-10-25T10:46:24.742Z,17.65
2022-10-25T10:48:59.216Z,17.69
2022-10-25T10:51:44.939Z,17.75
2022-10-25T10:54:30.421Z,17.78
2022-10-25T10:57:05.479Z,17.81
2022-10-25T10:59:53.470Z,17.85
2022-10-25T11:02:39.218Z,17.88
2022-10-25T11:05:25.527Z,17.92
2022-10-25T11:08:02.424Z,17.95
2022-10-25T11:10:36.476Z,17.97
2022-10-25T11:13:12.638Z,18.00
2022-10-25T11:16:37.381Z,18.06
2022-10-25T11:19:32.159Z,18.06
2022-10-25T11:22:23.540Z,18.09
2022-10-25T11:25:11.326Z,18.11
2022-10-25T11:27:56.762Z,18.14
2022-10-25T11:30:38.152Z,18.15
2022-10-25T11:33:43.370Z,18.19
2022-10-25T11:36:27.591Z,18.22
2022-10-25T11:39:13.265Z,18.23
2022-10-25T11:41:52.180Z,18.24
2022-10-25T11:44:48.061Z,18.28
2022-10-25T11:47:36.750Z,18.29
2022-10-25T11:50:23.549Z,18.32
2022-10-25T11:53:20.834Z,18.39
2022-10-25T11:56:00.142Z,18.43
2022-10-25T11:58:46.011Z,18.50
2022-10-25T12:01:31.781Z,18.54
2022-10-25T12:04:26.953Z,18.57
2022-10-25T12:07:10.524Z,18.62
2022-10-25T12:09:51.750Z,18.65
2022-10-25T12:12:38.795Z,18.68
2022-10-25T12:15:20.783Z,18.71
2022-10-25T12:17:54.399Z,18.74
2022-10-25T12:20:29.656Z,18.76
2022-10-25T12:23:06.032Z,18.80
2022-10-25T12:25:42.588Z,18.84
2022-10-25T12:28:24.208Z,18.90
2022-10-25T12:31:02.387Z,18.94
2022-10-25T12:33:40.350Z,18.95
2022-10-25T12:36:20.542Z,18.99
2022-10-25T12:38:53.777Z,19.00
2022-10-25T12:41:30.167Z,19.03
2022-10-25T12:44:24.160Z,19.07
2022-10-25T12:47:29.966Z,19.09
2022-10-25T12:50:31.156Z,19.11
2022-10-25T12:53:49.704Z,19.15
2022-10-25T12:56:37.732Z,19.17
2022-10-25T12:59:26.411Z,19.20
2022-10-25T13:02:22.233Z,19.21
2022-10-25T13:05:12.680Z,19.26
2022-10-25T13:07:50.173Z,19.27
2022-10-25T13:13:06.582Z,19.28
2022-10-25T13:15:43.591Z,19.32
2022-10-25T13:18:40.238Z,19.34
2022-10-25T13:21:15.465Z,19.35
2022-10-25T13:24:04.739Z,19.40
2022-10-25T13:27:21.463Z,19.42
2022-10-25T13:30:26.770Z,19.46
2022-10-25T13:33:28.292Z,19.50
2022-10-25T13:36:04.816Z,19.50
2022-10-25T13:38:40.054Z,19.52
2022-10-25T13:41:19.660Z,19.56
2022-10-25T13:44:02.556Z,19.59
2022-10-25T13:46:40.152Z,19.59
2022-10-25T13:49:33.356Z,19.65
2022-10-25T13:52:09.618Z,19.66
2022-10-25T13:54:50.998Z,19.72
2022-10-25T13:57:48.686Z,19.75
2022-10-25T14:00:38.389Z,19.77
2022-10-25T14:03:36.388Z,19.81
2022-10-25T14:06:25.472Z,19.81
2022-10-25T14:09:09.983Z,19.84
2022-10-25T14:11:49.909Z,19.85
2022-10-25T14:14:30.805Z,19.89
2022-10-25T14:17:13.242Z,19.91
2022-10-25T14:19:49.183Z,19.93
2022-10-25T14:22:39.726Z,19.96
2022-10-25T14:25:22.411Z,19.98
2022-10-25T14:28:07.061Z,19.98
2022-10-25T14:30:44.613Z,19.98
2022-10-25T14:33:28.339Z,19.98
2022-10-25T14:36:10.451Z,19.96
2022-10-25T14:38:53.474Z,19.98
2022-10-25T14:41:28.823Z,19.93
2022-10-25T14:44:03.406Z,19.92
2022-10-25T14:46:45.507Z,19.91
2022-10-25T14:49:23.085Z,19.87
2022-10-25T14:52:00.658Z,19.87
2022-10-25T14:54:37.149Z,19.84
2022-10-25T14:57:12.781Z,19.80
2022-10-25T14:59:49.411Z,19.78
2022-10-25T15:02:27.557Z,19.76
2022-10-25T15:05:02.241Z,19.71
2022-10-25T15:07:39.728Z,19.69
2022-10-25T15:10:41.748Z,19.66
2022-10-25T15:13:18.325Z,19.62
2022-10-25T15:15:52.653Z,19.62
2022-10-25T15:18:35.631Z,19.61
2022-10-25T15:21:13.042Z,19.56
2022-10-25T15:24:10.403Z,19.53
2022-10-25T15:26:53.756Z,19.49
2022-10-25T15:29:32.995Z,19.44
2022-10-25T15:32:05.869Z,19.38
2022-10-25T15:34:40.589Z,19.32
2022-10-25T15:37:15.140Z,19.28
2022-10-25T15:39:49.402Z,19.22
2022-10-25T15:42:23.762Z,19.15
2022-10-25T15:44:57.246Z,19.11
2022-10-25T15:47:33.451Z,19.02
2022-10-25T15:50:15.341Z,18.96
2022-10-25T15:52:48.949Z,18.88
2022-10-25T15:55:28.162Z,18.79
2022-10-25T15:58:01.312Z,18.70
2022-10-25T16:00:34.624Z,18.63
2022-10-25T16:03:08.543Z,18.54
2022-10-25T16:05:43.217Z,18.46
2022-10-25T16:08:16.425Z,18.39
2022-10-25T16:10:49.474Z,18.33
2022-10-25T16:13:27.447Z,18.27
2022-10-25T16:16:04.642Z,18.17
2022-10-25T16:18:44.858Z,18.12
2022-10-25T16:21:20.391Z,18.04
2022-10-25T16:23:53.382Z,17.94
2022-10-25T16:26:33.821Z,17.91
2022-10-25T16:29:06.827Z,17.81
2022-10-25T16:31:39.682Z,17.73
2022-10-25T16:34:12.983Z,17.65
2022-10-25T16:36:48.292Z,17.60
2022-10-25T16:39:21.726Z,17.52
2022-10-25T16:41:56.854Z,17.45
2022-10-25T16:44:29.849Z,17.37
2022-10-25T16:47:02.841Z,17.30
2022-10-25T16:49:35.762Z,17.25
2022-10-25T16:52:10.059Z,17.19
2022-10-25T16:54:42.916Z,17.11
2022-10-25T16:57:16.692Z,17.05
2022-10-25T16:59:51.653Z,16.98
2022-10-25T17:02:26.158Z,16.93
2022-10-25T17:04:59.007Z,16.86
2022-10-25T17:07:33.793Z,16.80
2022-10-25T17:10:07.354Z,16.75
2022-10-25T17:12:44.484Z,16.69
2022-10-25T17:15:18.602Z,16.62
2022-10-25T17:17:51.825Z,16.54
2022-10-25T17:20:24.860Z,16.50
2022-10-25T17:23:01.672Z,16.45
2022-10-25T17:25:35.056Z,16.40
2022-10-25T17:28:08.606Z,16.34
2022-10-25T17:30:44.279Z,16.29
2022-10-25T17:33:17.160Z,16.22
2022-10-25T17:35:51.306Z,16.18
2022-10-25T17:38:25.927Z,16.13
2022-10-25T17:40:58.904Z,16.09
2022-10-25T17:43:32.216Z,16.03
2022-10-25T17:46:08.008Z,16.01
2022-10-25T17:48:40.957Z,16.01
2022-10-25T17:51:15.820Z,16.00
2022-10-25T17:53:57.372Z,16.02
2022-10-25T17:59:08.676Z,16.07
2022-10-25T18:01:42.020Z,16.11
2022-10-25T18:04:15.117Z,16.15
2022-10-25T18:06:47.973Z,16.19
2022-10-25T18:09:22.253Z,16.24
2022-10-25T18:11:55.281Z,16.29
2022-10-25T18:14:28.356Z,16.31
2022-10-25T18:17:01.765Z,16.36
2022-10-25T18:19:39.834Z,16.39
2022-10-25T18:22:12.837Z,16.44
2022-10-25T18:24:47.526Z,16.47
2022-10-25T18:27:20.923Z,16.50
2022-10-25T18:29:55.424Z,16.52
2022-10-25T18:32:36.287Z,16.56
2022-10-25T18:35:10.584Z,16.59
2022-10-25T18:37:43.446Z,16.60
2022-10-25T18:40:18.405Z,16.65
2022-10-25T18:42:51.205Z,16.66
2022-10-25T18:45:24.150Z,16.67
2022-10-25T18:47:59.093Z,16.70
2022-10-25T18:50:32.001Z,16.69
2022-10-25T18:53:05.466Z,16.69
2022-10-25T18:55:39.854Z,16.69
2022-10-25T18:58:13.087Z,16.66
2022-10-25T19:00:47.000Z,16.63
2022-10-25T19:03:19.810Z,16.59
2022-10-25T19:05:52.769Z,16.56
2022-10-25T19:08:25.973Z,16.50
2022-10-25T19:11:05.483Z,16.45
2022-10-25T19:13:38.787Z,16.38
2022-10-25T19:16:13.436Z,16.32
2022-10-25T19:18:46.618Z,16.29
2022-10-25T19:21:20.444Z,16.25
2022-10-25T19:23:54.310Z,16.20
2022-10-25T19:26:31.199Z,16.19
2022-10-25T19:29:04.249Z,16.14
2022-10-25T19:31:37.314Z,16.14
2022-10-25T19:34:10.131Z,16.12
2022-10-25T19:36:43.107Z,16.12
2022-10-25T19:39:15.931Z,16.12
2022-10-25T19:41:50.546Z,16.12
2022-10-25T19:44:23.442Z,16.09
2022-10-25T19:46:56.318Z,16.09
2022-10-25T19:49:29.263Z,16.06
2022-10-25T19:52:02.130Z,16.02
2022-10-25T19:54:34.972Z,16.01
2022-10-25T19:57:09.396Z,16.01
2022-10-25T19:59:42.223Z,15.96
2022-10-25T20:02:15.117Z,15.90
2022-10-25T20:04:48.019Z,15.84
2022-10-25T20:07:21.018Z,15.80
2022-10-25T20:09:54.162Z,15.76
2022-10-25T20:12:30.778Z,15.74
2022-10-25T20:15:03.622Z,15.70
2022-10-25T20:17:37.174Z,15.70
2022-10-25T20:20:11.474Z,15.70
2022-10-25T20:22:44.473Z,15.69
2022-10-25T20:25:17.311Z,15.70
2022-10-25T20:27:52.002Z,15.70
2022-10-25T20:30:24.896Z,15.68
2022-10-25T20:32:57.794Z,15.67
2022-10-25T20:35:30.658Z,15.64
2022-10-25T20:38:03.963Z,15.62
2022-10-25T20:40:36.779Z,15.60
2022-10-25T20:43:11.119Z,15.60
2022-10-25T20:45:48.198Z,15.58
2022-10-25T20:48:21.099Z,15.55
2022-10-25T20:50:54.170Z,15.54
2022-10-25T20:53:27.152Z,15.51
2022-10-25T20:56:00.344Z,15.48
2022-10-25T20:58:35.663Z,15.47
2022-10-25T21:01:08.806Z,15.45
2022-10-25T21:03:42.109Z,15.46
2022-10-25T21:06:14.893Z,15.47
2022-10-25T21:08:47.842Z,15.48
2022-10-25T21:11:20.873Z,15.49
2022-10-25T21:13:55.342Z,15.51
2022-10-25T21:16:28.151Z,15.54
2022-10-25T21:19:04.329Z,15.56
2022-10-25T21:21:37.128Z,15.57
2022-10-25T21:24:11.279Z,15.61
2022-10-25T21:26:44.045Z,15.64
2022-10-25T21:29:18.401Z,15.70
2022-10-25T21:31:51.253Z,15.73
2022-10-25T21:34:24.129Z,15.77
2022-10-25T21:36:56.948Z,15.80
2022-10-25T21:39:30.148Z,15.83
2022-10-25T21:42:02.998Z,15.84
2022-10-25T21:44:37.331Z,15.89
2022-10-25T21:47:10.158Z,15.90
2022-10-25T21:49:42.996Z,15.93
2022-10-25T21:52:15.841Z,15.96
2022-10-25T21:54:48.697Z,15.97
2022-10-25T21:57:21.480Z,15.99
2022-10-25T21:59:55.788Z,16.02
2022-10-25T22:02:28.768Z,16.03
2022-10-25T22:05:01.738Z,16.05
2022-10-25T22:07:34.693Z,16.05
2022-10-25T22:10:08.089Z,16.09
2022-10-25T22:12:40.900Z,16.09
2022-10-25T22:15:15.112Z,16.13
2022-10-25T22:17:47.997Z,16.12
2022-10-25T22:20:20.872Z,16.14
2022-10-25T22:22:53.696Z,16.16
2022-10-25T22:25:26.563Z,16.17
2022-10-25T22:27:59.337Z,16.20
2022-10-25T22:30:33.857Z,16.23
2022-10-25T22:33:06.593Z,16.22
2022-10-25T22:35:39.591Z,16.24
2022-10-25T22:38:12.371Z,16.25
2022-10-25T22:40:45.269Z,16.29
2022-10-25T22:43:18.200Z,16.28
2022-10-25T22:45:52.812Z,16.29
2022-10-25T22:48:25.976Z,16.28
2022-10-25T22:50:59.592Z,16.24
2022-10-25T22:53:33.089Z,16.21
2022-10-25T22:56:09.630Z,16.19
2022-10-25T22:58:44.496Z,16.16
2022-10-25T23:01:20.948Z,16.12
2022-10-25T23:03:55.961Z,16.10
2022-10-25T23:06:31.283Z,16.06
2022-10-25T23:09:07.103Z,16.03
2022-10-25T23:11:41.693Z,16.02
2022-10-25T23:14:17.509Z,16.00
2022-10-25T23:16:52.807Z,16.00
2022-10-25T23:19:25.960Z,15.99
2022-10-25T23:21:59.300Z,15.99
2022-10-25T23:24:32.442Z,15.99
2022-10-25T23:27:07.014Z,15.99
2022-10-25T23:29:40.542Z,16.01
2022-10-25T23:32:17.636Z,16.02
2022-10-25T23:34:52.529Z,16.03
2022-10-25T23:37:29.563Z,16.05
2022-10-25T23:40:02.404Z,16.05
2022-10-25T23:42:35.915Z,16.06
2022-10-25T23:45:11.790Z,16.07
2022-10-25T23:47:48.041Z,16.08
2022-10-25T23:50:22.262Z,16.07
2022-10-25T23:52:55.629Z,16.07
2022-10-25T23:55:29.072Z,16.08
2022-10-25T23:58:02.516Z,16.09
